sensor_id;sensor_type;location;lat;lon;timestamp;P1;durP1;ratioP1;P2;durP2;ratioP2
5646;SDS011;2845;48.626;9.362;2023-12-20T00:01:16;1.45;;;0.60;;
5646;SDS011;2845;48.626;9.362;2023-12-20T00:03:51;1.35;;;0.55;;
5646;SDS011;2845;48.626;9.362;2023-12-20T00:06:25;0.82;;;0.43;;
5646;SDS011;2845;48.626;9.362;2023-12-20T00:08:59;1.58;;;0.80;;
5646;SDS011;2845;48.626;9.362;2023-12-20T00:11:34;2.17;;;0.50;;
5646;SDS011;2845;48.626;9.362;2023-12-20T00:14:08;0.80;;;0.40;;
5646;SDS011;2845;48.626;9.362;2023-12-20T00:16:43;0.55;;;0.22;;
5646;SDS011;2845;48.626;9.362;2023-12-20T00:19:17;1.70;;;0.38;;
5646;SDS011;2845;48.626;9.362;2023-12-20T00:21:51;0.47;;;0.35;;
5646;SDS011;2845;48.626;9.362;2023-12-20T00:24:25;1.85;;;0.35;;
5646;SDS011;2845;48.626;9.362;2023-12-20T00:27:00;1.20;;;0.47;;
5646;SDS011;2845;48.626;9.362;2023-12-20T00:29:34;2.17;;;0.60;;
5646;SDS011;2845;48.626;9.362;2023-12-20T00:32:08;1.23;;;0.40;;
5646;SDS011;2845;48.626;9.362;2023-12-20T00:34:43;3.20;;;0.52;;
5646;SDS011;2845;48.626;9.362;2023-12-20T00:37:17;1.00;;;0.40;;
5646;SDS011;2845;48.626;9.362;2023-12-20T00:39:51;1.20;;;0.60;;
5646;SDS011;2845;48.626;9.362;2023-12-20T00:42:27;1.67;;;0.60;;
5646;SDS011;2845;48.626;9.362;2023-12-20T00:45:01;1.70;;;0.57;;
5646;SDS011;2845;48.626;9.362;2023-12-20T00:47:37;0.98;;;0.40;;
5646;SDS011;2845;48.626;9.362;2023-12-20T00:50:11;1.42;;;0.45;;
5646;SDS011;2845;48.626;9.362;2023-12-20T00:52:45;0.95;;;0.40;;
5646;SDS011;2845;48.626;9.362;2023-12-20T00:55:19;0.45;;;0.13;;
5646;SDS011;2845;48.626;9.362;2023-12-20T00:57:55;0.88;;;0.47;;
5646;SDS011;2845;48.626;9.362;2023-12-20T01:00:29;2.15;;;0.40;;
5646;SDS011;2845;48.626;9.362;2023-12-20T01:03:03;0.38;;;0.20;;
5646;SDS011;2845;48.626;9.362;2023-12-20T01:05:37;1.25;;;0.40;;
5646;SDS011;2845;48.626;9.362;2023-12-20T01:08:12;0.63;;;0.30;;
5646;SDS011;2845;48.626;9.362;2023-12-20T01:10:46;0.60;;;0.22;;
5646;SDS011;2845;48.626;9.362;2023-12-20T01:13:21;0.10;;;0.10;;
5646;SDS011;2845;48.626;9.362;2023-12-20T01:15:55;0.98;;;0.20;;
5646;SDS011;2845;48.626;9.362;2023-12-20T01:18:29;0.30;;;0.20;;
5646;SDS011;2845;48.626;9.362;2023-12-20T01:21:03;0.40;;;0.20;;
5646;SDS011;2845;48.626;9.362;2023-12-20T01:23:38;1.13;;;0.50;;
5646;SDS011;2845;48.626;9.362;2023-12-20T01:26:12;1.27;;;0.30;;
5646;SDS011;2845;48.626;9.362;2023-12-20T01:28:47;0.32;;;0.17;;
5646;SDS011;2845;48.626;9.362;2023-12-20T01:31:21;0.40;;;0.25;;
5646;SDS011;2845;48.626;9.362;2023-12-20T01:33:56;2.17;;;0.25;;
5646;SDS011;2845;48.626;9.362;2023-12-20T01:36:30;0.32;;;0.10;;
5646;SDS011;2845;48.626;9.362;2023-12-20T01:39:04;0.95;;;0.40;;
5646;SDS011;2845;48.626;9.362;2023-12-20T01:41:56;0.60;;;0.22;;
5646;SDS011;2845;48.626;9.362;2023-12-20T01:44:31;1.00;;;0.30;;
5646;SDS011;2845;48.626;9.362;2023-12-20T01:47:05;0.68;;;0.30;;
5646;SDS011;2845;48.626;9.362;2023-12-20T01:49:40;0.75;;;0.38;;
5646;SDS011;2845;48.626;9.362;2023-12-20T01:52:14;0.73;;;0.20;;
5646;SDS011;2845;48.626;9.362;2023-12-20T01:54:48;0.73;;;0.30;;
5646;SDS011;2845;48.626;9.362;2023-12-20T01:57:22;0.47;;;0.20;;
5646;SDS011;2845;48.626;9.362;2023-12-20T01:59:58;0.50;;;0.20;;
5646;SDS011;2845;48.626;9.362;2023-12-20T02:02:32;0.88;;;0.25;;
5646;SDS011;2845;48.626;9.362;2023-12-20T02:05:07;1.30;;;0.73;;
5646;SDS011;2845;48.626;9.362;2023-12-20T02:07:42;0.85;;;0.30;;
5646;SDS011;2845;48.626;9.362;2023-12-20T02:10:17;0.98;;;0.40;;
5646;SDS011;2845;48.626;9.362;2023-12-20T02:12:51;0.73;;;0.10;;
5646;SDS011;2845;48.626;9.362;2023-12-20T02:15:27;0.90;;;0.20;;
5646;SDS011;2845;48.626;9.362;2023-12-20T02:18:01;0.98;;;0.28;;
5646;SDS011;2845;48.626;9.362;2023-12-20T02:20:35;1.00;;;0.40;;
5646;SDS011;2845;48.626;9.362;2023-12-20T02:23:10;0.95;;;0.30;;
5646;SDS011;2845;48.626;9.362;2023-12-20T02:25:44;0.10;;;0.10;;
5646;SDS011;2845;48.626;9.362;2023-12-20T02:28:18;0.60;;;0.28;;
5646;SDS011;2845;48.626;9.362;2023-12-20T02:30:53;0.70;;;0.20;;
5646;SDS011;2845;48.626;9.362;2023-12-20T02:33:28;2.08;;;0.20;;
5646;SDS011;2845;48.626;9.362;2023-12-20T02:36:02;0.20;;;0.20;;
5646;SDS011;2845;48.626;9.362;2023-12-20T02:38:38;0.38;;;0.10;;
5646;SDS011;2845;48.626;9.362;2023-12-20T02:41:12;0.52;;;0.22;;
5646;SDS011;2845;48.626;9.362;2023-12-20T02:43:49;0.28;;;0.20;;
5646;SDS011;2845;48.626;9.362;2023-12-20T02:46:23;0.82;;;0.20;;
5646;SDS011;2845;48.626;9.362;2023-12-20T02:48:57;0.50;;;0.40;;
5646;SDS011;2845;48.626;9.362;2023-12-20T02:51:31;0.85;;;0.30;;
5646;SDS011;2845;48.626;9.362;2023-12-20T02:54:06;0.10;;;0.10;;
5646;SDS011;2845;48.626;9.362;2023-12-20T02:56:40;0.38;;;0.25;;
5646;SDS011;2845;48.626;9.362;2023-12-20T02:59:15;0.32;;;0.20;;
5646;SDS011;2845;48.626;9.362;2023-12-20T03:01:49;0.75;;;0.25;;
5646;SDS011;2845;48.626;9.362;2023-12-20T03:04:23;0.85;;;0.20;;
5646;SDS011;2845;48.626;9.362;2023-12-20T03:06:57;0.57;;;0.22;;
5646;SDS011;2845;48.626;9.362;2023-12-20T03:09:33;0.10;;;0.10;;
5646;SDS011;2845;48.626;9.362;2023-12-20T03:12:27;0.80;;;0.15;;
5646;SDS011;2845;48.626;9.362;2023-12-20T03:15:01;1.23;;;0.20;;
5646;SDS011;2845;48.626;9.362;2023-12-20T03:17:35;0.47;;;0.20;;
5646;SDS011;2845;48.626;9.362;2023-12-20T03:20:09;0.38;;;0.10;;
5646;SDS011;2845;48.626;9.362;2023-12-20T03:22:43;0.28;;;0.10;;
5646;SDS011;2845;48.626;9.362;2023-12-20T03:25:19;0.32;;;0.20;;
5646;SDS011;2845;48.626;9.362;2023-12-20T03:27:53;0.63;;;0.28;;
5646;SDS011;2845;48.626;9.362;2023-12-20T03:30:27;0.08;;;0.08;;
5646;SDS011;2845;48.626;9.362;2023-12-20T03:33:01;0.45;;;0.20;;
5646;SDS011;2845;48.626;9.362;2023-12-20T03:35:36;0.22;;;0.10;;
5646;SDS011;2845;48.626;9.362;2023-12-20T03:38:10;0.35;;;0.13;;
5646;SDS011;2845;48.626;9.362;2023-12-20T03:40:45;0.50;;;0.20;;
5646;SDS011;2845;48.626;9.362;2023-12-20T03:43:19;0.30;;;0.10;;
5646;SDS011;2845;48.626;9.362;2023-12-20T03:45:54;0.20;;;0.10;;
5646;SDS011;2845;48.626;9.362;2023-12-20T03:48:28;0.13;;;0.10;;
5646;SDS011;2845;48.626;9.362;2023-12-20T03:51:02;0.10;;;0.10;;
5646;SDS011;2845;48.626;9.362;2023-12-20T03:53:36;0.40;;;0.10;;
5646;SDS011;2845;48.626;9.362;2023-12-20T03:56:14;0.45;;;0.20;;
5646;SDS011;2845;48.626;9.362;2023-12-20T03:58:48;0.70;;;0.20;;
5646;SDS011;2845;48.626;9.362;2023-12-20T04:01:22;0.85;;;0.13;;
5646;SDS011;2845;48.626;9.362;2023-12-20T04:03:56;0.85;;;0.20;;
5646;SDS011;2845;48.626;9.362;2023-12-20T04:06:30;0.10;;;0.10;;
5646;SDS011;2845;48.626;9.362;2023-12-20T04:09:05;0.32;;;0.20;;
5646;SDS011;2845;48.626;9.362;2023-12-20T04:11:42;0.90;;;0.30;;
5646;SDS011;2845;48.626;9.362;2023-12-20T04:14:16;0.45;;;0.10;;
5646;SDS011;2845;48.626;9.362;2023-12-20T04:16:50;0.30;;;0.10;;
5646;SDS011;2845;48.626;9.362;2023-12-20T04:19:25;0.63;;;0.10;;
5646;SDS011;2845;48.626;9.362;2023-12-20T04:21:59;0.40;;;0.10;;
5646;SDS011;2845;48.626;9.362;2023-12-20T04:24:33;0.25;;;0.17;;
5646;SDS011;2845;48.626;9.362;2023-12-20T04:27:09;0.65;;;0.20;;
5646;SDS011;2845;48.626;9.362;2023-12-20T04:29:43;0.52;;;0.20;;
5646;SDS011;2845;48.626;9.362;2023-12-20T04:32:17;0.00;;;0.00;;
5646;SDS011;2845;48.626;9.362;2023-12-20T04:34:51;0.50;;;0.25;;
5646;SDS011;2845;48.626;9.362;2023-12-20T04:37:25;0.30;;;0.10;;
5646;SDS011;2845;48.626;9.362;2023-12-20T04:39:59;0.20;;;0.10;;
5646;SDS011;2845;48.626;9.362;2023-12-20T04:42:35;0.55;;;0.20;;
5646;SDS011;2845;48.626;9.362;2023-12-20T04:45:09;0.00;;;0.00;;
5646;SDS011;2845;48.626;9.362;2023-12-20T04:47:45;0.30;;;0.08;;
5646;SDS011;2845;48.626;9.362;2023-12-20T04:50:20;0.10;;;0.10;;
5646;SDS011;2845;48.626;9.362;2023-12-20T04:52:55;0.55;;;0.10;;
5646;SDS011;2845;48.626;9.362;2023-12-20T04:55:29;0.00;;;0.00;;
5646;SDS011;2845;48.626;9.362;2023-12-20T04:58:04;0.65;;;0.10;;
5646;SDS011;2845;48.626;9.362;2023-12-20T05:00:38;0.68;;;0.20;;
5646;SDS011;2845;48.626;9.362;2023-12-20T05:03:12;0.17;;;0.10;;
5646;SDS011;2845;48.626;9.362;2023-12-20T05:05:47;0.30;;;0.10;;
5646;SDS011;2845;48.626;9.362;2023-12-20T05:08:21;0.20;;;0.10;;
5646;SDS011;2845;48.626;9.362;2023-12-20T05:10:55;0.55;;;0.17;;
5646;SDS011;2845;48.626;9.362;2023-12-20T05:13:31;0.22;;;0.20;;
5646;SDS011;2845;48.626;9.362;2023-12-20T05:16:16;0.47;;;0.10;;
5646;SDS011;2845;48.626;9.362;2023-12-20T05:18:51;0.20;;;0.13;;
5646;SDS011;2845;48.626;9.362;2023-12-20T05:21:25;0.15;;;0.03;;
5646;SDS011;2845;48.626;9.362;2023-12-20T05:24:00;0.60;;;0.13;;
5646;SDS011;2845;48.626;9.362;2023-12-20T05:26:34;0.10;;;0.08;;
5646;SDS011;2845;48.626;9.362;2023-12-20T05:29:09;1.13;;;0.13;;
5646;SDS011;2845;48.626;9.362;2023-12-20T05:31:43;0.17;;;0.10;;
5646;SDS011;2845;48.626;9.362;2023-12-20T05:34:17;0.20;;;0.03;;
5646;SDS011;2845;48.626;9.362;2023-12-20T05:36:52;0.20;;;0.00;;
5646;SDS011;2845;48.626;9.362;2023-12-20T05:39:26;0.43;;;0.05;;
5646;SDS011;2845;48.626;9.362;2023-12-20T05:42:00;0.55;;;0.10;;
5646;SDS011;2845;48.626;9.362;2023-12-20T05:44:36;0.77;;;0.10;;
5646;SDS011;2845;48.626;9.362;2023-12-20T05:47:10;0.63;;;0.10;;
5646;SDS011;2845;48.626;9.362;2023-12-20T05:49:44;0.60;;;0.10;;
5646;SDS011;2845;48.626;9.362;2023-12-20T05:52:19;0.47;;;0.10;;
5646;SDS011;2845;48.626;9.362;2023-12-20T05:54:53;0.60;;;0.20;;
5646;SDS011;2845;48.626;9.362;2023-12-20T05:57:28;1.65;;;0.30;;
5646;SDS011;2845;48.626;9.362;2023-12-20T06:00:04;1.15;;;0.20;;
5646;SDS011;2845;48.626;9.362;2023-12-20T06:02:39;1.08;;;0.30;;
5646;SDS011;2845;48.626;9.362;2023-12-20T06:05:13;1.08;;;0.20;;
5646;SDS011;2845;48.626;9.362;2023-12-20T06:07:47;0.30;;;0.17;;
5646;SDS011;2845;48.626;9.362;2023-12-20T06:10:23;1.38;;;0.30;;
5646;SDS011;2845;48.626;9.362;2023-12-20T06:12:57;1.10;;;0.38;;
5646;SDS011;2845;48.626;9.362;2023-12-20T06:15:34;0.40;;;0.30;;
5646;SDS011;2845;48.626;9.362;2023-12-20T06:18:08;0.82;;;0.28;;
5646;SDS011;2845;48.626;9.362;2023-12-20T06:20:42;0.40;;;0.13;;
5646;SDS011;2845;48.626;9.362;2023-12-20T06:23:17;1.80;;;0.30;;
5646;SDS011;2845;48.626;9.362;2023-12-20T06:25:51;0.60;;;0.30;;
5646;SDS011;2845;48.626;9.362;2023-12-20T06:28:25;0.52;;;0.28;;
5646;SDS011;2845;48.626;9.362;2023-12-20T06:31:00;0.30;;;0.20;;
5646;SDS011;2845;48.626;9.362;2023-12-20T06:33:35;0.88;;;0.40;;
5646;SDS011;2845;48.626;9.362;2023-12-20T06:36:10;0.70;;;0.40;;
5646;SDS011;2845;48.626;9.362;2023-12-20T06:38:45;1.20;;;0.50;;
5646;SDS011;2845;48.626;9.362;2023-12-20T06:41:19;1.38;;;0.30;;
5646;SDS011;2845;48.626;9.362;2023-12-20T06:43:53;0.20;;;0.10;;
5646;SDS011;2845;48.626;9.362;2023-12-20T06:46:29;0.15;;;0.10;;
5646;SDS011;2845;48.626;9.362;2023-12-20T06:49:03;0.90;;;0.30;;
5646;SDS011;2845;48.626;9.362;2023-12-20T06:51:38;1.10;;;0.30;;
5646;SDS011;2845;48.626;9.362;2023-12-20T06:54:12;0.50;;;0.30;;
5646;SDS011;2845;48.626;9.362;2023-12-20T06:56:46;2.40;;;0.40;;
5646;SDS011;2845;48.626;9.362;2023-12-20T06:59:20;0.63;;;0.30;;
5646;SDS011;2845;48.626;9.362;2023-12-20T07:01:55;0.77;;;0.30;;
5646;SDS011;2845;48.626;9.362;2023-12-20T07:04:30;1.17;;;0.20;;
5646;SDS011;2845;48.626;9.362;2023-12-20T07:07:04;1.13;;;0.28;;
5646;SDS011;2845;48.626;9.362;2023-12-20T07:09:39;0.40;;;0.30;;
5646;SDS011;2845;48.626;9.362;2023-12-20T07:12:15;1.35;;;0.32;;
5646;SDS011;2845;48.626;9.362;2023-12-20T07:14:50;0.57;;;0.20;;
5646;SDS011;2845;48.626;9.362;2023-12-20T07:17:26;1.75;;;0.68;;
5646;SDS011;2845;48.626;9.362;2023-12-20T07:20:00;1.70;;;0.80;;
5646;SDS011;2845;48.626;9.362;2023-12-20T07:22:36;2.55;;;0.82;;
5646;SDS011;2845;48.626;9.362;2023-12-20T07:25:11;1.90;;;0.80;;
5646;SDS011;2845;48.626;9.362;2023-12-20T07:27:46;2.50;;;0.88;;
5646;SDS011;2845;48.626;9.362;2023-12-20T07:30:20;2.95;;;1.17;;
5646;SDS011;2845;48.626;9.362;2023-12-20T07:32:56;2.00;;;0.90;;
5646;SDS011;2845;48.626;9.362;2023-12-20T07:35:30;2.70;;;0.80;;
5646;SDS011;2845;48.626;9.362;2023-12-20T07:38:04;1.55;;;0.45;;
5646;SDS011;2845;48.626;9.362;2023-12-20T07:40:39;1.33;;;0.50;;
5646;SDS011;2845;48.626;9.362;2023-12-20T07:43:13;0.90;;;0.55;;
5646;SDS011;2845;48.626;9.362;2023-12-20T07:45:47;1.33;;;0.50;;
5646;SDS011;2845;48.626;9.362;2023-12-20T07:48:22;0.60;;;0.30;;
5646;SDS011;2845;48.626;9.362;2023-12-20T07:50:57;0.98;;;0.50;;
5646;SDS011;2845;48.626;9.362;2023-12-20T07:53:31;0.77;;;0.30;;
5646;SDS011;2845;48.626;9.362;2023-12-20T07:56:13;1.45;;;0.40;;
5646;SDS011;2845;48.626;9.362;2023-12-20T07:58:48;0.52;;;0.20;;
5646;SDS011;2845;48.626;9.362;2023-12-20T08:01:25;1.90;;;0.50;;
5646;SDS011;2845;48.626;9.362;2023-12-20T08:04:00;1.88;;;0.52;;
5646;SDS011;2845;48.626;9.362;2023-12-20T08:06:35;1.27;;;0.40;;
5646;SDS011;2845;48.626;9.362;2023-12-20T08:09:09;1.73;;;0.50;;
5646;SDS011;2845;48.626;9.362;2023-12-20T08:11:44;0.93;;;0.45;;
5646;SDS011;2845;48.626;9.362;2023-12-20T08:14:19;1.60;;;0.40;;
5646;SDS011;2845;48.626;9.362;2023-12-20T08:16:53;1.80;;;0.50;;
5646;SDS011;2845;48.626;9.362;2023-12-20T08:19:28;1.55;;;0.60;;
5646;SDS011;2845;48.626;9.362;2023-12-20T08:22:02;2.17;;;0.85;;
5646;SDS011;2845;48.626;9.362;2023-12-20T08:24:37;1.02;;;0.63;;
5646;SDS011;2845;48.626;9.362;2023-12-20T08:27:11;1.10;;;0.52;;
5646;SDS011;2845;48.626;9.362;2023-12-20T08:29:45;1.92;;;0.77;;
5646;SDS011;2845;48.626;9.362;2023-12-20T08:32:19;2.63;;;0.60;;
5646;SDS011;2845;48.626;9.362;2023-12-20T08:34:55;0.98;;;0.43;;
5646;SDS011;2845;48.626;9.362;2023-12-20T08:37:29;0.70;;;0.30;;
5646;SDS011;2845;48.626;9.362;2023-12-20T08:40:03;0.77;;;0.30;;
5646;SDS011;2845;48.626;9.362;2023-12-20T08:42:39;1.95;;;0.68;;
5646;SDS011;2845;48.626;9.362;2023-12-20T08:45:13;0.38;;;0.30;;
5646;SDS011;2845;48.626;9.362;2023-12-20T08:47:47;0.57;;;0.28;;
5646;SDS011;2845;48.626;9.362;2023-12-20T08:50:23;1.30;;;0.40;;
5646;SDS011;2845;48.626;9.362;2023-12-20T08:52:58;0.65;;;0.30;;
5646;SDS011;2845;48.626;9.362;2023-12-20T08:55:32;0.52;;;0.20;;
5646;SDS011;2845;48.626;9.362;2023-12-20T08:58:06;0.60;;;0.30;;
5646;SDS011;2845;48.626;9.362;2023-12-20T09:00:41;0.80;;;0.20;;
5646;SDS011;2845;48.626;9.362;2023-12-20T09:03:15;0.22;;;0.13;;
5646;SDS011;2845;48.626;9.362;2023-12-20T09:05:50;0.70;;;0.30;;
5646;SDS011;2845;48.626;9.362;2023-12-20T09:08:24;1.73;;;0.30;;
5646;SDS011;2845;48.626;9.362;2023-12-20T09:10:59;1.23;;;0.40;;
5646;SDS011;2845;48.626;9.362;2023-12-20T09:13:33;1.67;;;0.57;;
5646;SDS011;2845;48.626;9.362;2023-12-20T09:16:08;1.23;;;0.38;;
5646;SDS011;2845;48.626;9.362;2023-12-20T09:18:42;2.78;;;0.98;;
5646;SDS011;2845;48.626;9.362;2023-12-20T09:21:18;2.10;;;0.80;;
5646;SDS011;2845;48.626;9.362;2023-12-20T09:23:52;1.38;;;0.60;;
5646;SDS011;2845;48.626;9.362;2023-12-20T09:26:26;1.50;;;0.70;;
5646;SDS011;2845;48.626;9.362;2023-12-20T09:29:00;2.08;;;0.70;;
5646;SDS011;2845;48.626;9.362;2023-12-20T09:31:36;1.77;;;0.63;;
5646;SDS011;2845;48.626;9.362;2023-12-20T09:34:10;1.65;;;0.75;;
5646;SDS011;2845;48.626;9.362;2023-12-20T09:36:46;1.67;;;0.50;;
5646;SDS011;2845;48.626;9.362;2023-12-20T09:39:20;1.65;;;0.50;;
5646;SDS011;2845;48.626;9.362;2023-12-20T09:41:59;0.85;;;0.40;;
5646;SDS011;2845;48.626;9.362;2023-12-20T09:44:35;1.48;;;0.52;;
5646;SDS011;2845;48.626;9.362;2023-12-20T09:47:13;1.15;;;0.47;;
5646;SDS011;2845;48.626;9.362;2023-12-20T09:49:49;1.77;;;0.50;;
5646;SDS011;2845;48.626;9.362;2023-12-20T09:52:26;0.80;;;0.32;;
5646;SDS011;2845;48.626;9.362;2023-12-20T09:55:00;0.28;;;0.20;;
5646;SDS011;2845;48.626;9.362;2023-12-20T09:57:38;0.22;;;0.20;;
5646;SDS011;2845;48.626;9.362;2023-12-20T10:00:13;2.13;;;0.45;;
5646;SDS011;2845;48.626;9.362;2023-12-20T10:02:50;2.53;;;0.50;;
5646;SDS011;2845;48.626;9.362;2023-12-20T10:05:30;1.70;;;0.40;;
5646;SDS011;2845;48.626;9.362;2023-12-20T10:08:08;2.65;;;0.55;;
5646;SDS011;2845;48.626;9.362;2023-12-20T10:10:43;1.70;;;0.60;;
5646;SDS011;2845;48.626;9.362;2023-12-20T10:13:22;2.22;;;0.80;;
5646;SDS011;2845;48.626;9.362;2023-12-20T10:15:57;2.17;;;0.60;;
5646;SDS011;2845;48.626;9.362;2023-12-20T10:18:33;2.58;;;0.50;;
5646;SDS011;2845;48.626;9.362;2023-12-20T10:21:11;1.33;;;0.43;;
5646;SDS011;2845;48.626;9.362;2023-12-20T10:23:47;3.00;;;0.47;;
5646;SDS011;2845;48.626;9.362;2023-12-20T10:26:23;0.75;;;0.30;;
5646;SDS011;2845;48.626;9.362;2023-12-20T10:29:00;1.10;;;0.28;;
5646;SDS011;2845;48.626;9.362;2023-12-20T10:31:36;0.63;;;0.22;;
5646;SDS011;2845;48.626;9.362;2023-12-20T10:34:12;0.57;;;0.30;;
5646;SDS011;2845;48.626;9.362;2023-12-20T10:36:46;1.98;;;0.32;;
5646;SDS011;2845;48.626;9.362;2023-12-20T10:39:22;0.57;;;0.25;;
5646;SDS011;2845;48.626;9.362;2023-12-20T10:41:57;1.77;;;0.47;;
5646;SDS011;2845;48.626;9.362;2023-12-20T10:44:31;1.27;;;0.52;;
5646;SDS011;2845;48.626;9.362;2023-12-20T10:47:05;1.17;;;0.30;;
5646;SDS011;2845;48.626;9.362;2023-12-20T10:49:43;2.70;;;0.88;;
5646;SDS011;2845;48.626;9.362;2023-12-20T10:52:17;3.78;;;0.70;;
5646;SDS011;2845;48.626;9.362;2023-12-20T10:54:54;2.05;;;0.40;;
5646;SDS011;2845;48.626;9.362;2023-12-20T10:57:28;1.30;;;0.38;;
5646;SDS011;2845;48.626;9.362;2023-12-20T11:00:04;4.38;;;0.45;;
5646;SDS011;2845;48.626;9.362;2023-12-20T11:02:42;1.55;;;0.60;;
5646;SDS011;2845;48.626;9.362;2023-12-20T11:05:20;5.57;;;0.60;;
5646;SDS011;2845;48.626;9.362;2023-12-20T11:08:06;3.53;;;0.45;;
5646;SDS011;2845;48.626;9.362;2023-12-20T11:10:50;1.95;;;0.50;;
5646;SDS011;2845;48.626;9.362;2023-12-20T11:13:31;1.55;;;0.45;;
5646;SDS011;2845;48.626;9.362;2023-12-20T11:16:10;1.70;;;0.40;;
5646;SDS011;2845;48.626;9.362;2023-12-20T11:18:44;2.40;;;0.68;;
5646;SDS011;2845;48.626;9.362;2023-12-20T11:21:19;3.63;;;0.50;;
5646;SDS011;2845;48.626;9.362;2023-12-20T11:23:54;4.25;;;0.65;;
5646;SDS011;2845;48.626;9.362;2023-12-20T11:26:29;1.00;;;0.52;;
5646;SDS011;2845;48.626;9.362;2023-12-20T11:35:16;0.55;;;0.28;;
5646;SDS011;2845;48.626;9.362;2023-12-20T11:37:53;2.25;;;0.70;;
5646;SDS011;2845;48.626;9.362;2023-12-20T11:40:27;4.50;;;0.30;;
5646;SDS011;2845;48.626;9.362;2023-12-20T11:43:03;0.57;;;0.28;;
5646;SDS011;2845;48.626;9.362;2023-12-20T11:45:38;1.17;;;0.35;;
5646;SDS011;2845;48.626;9.362;2023-12-20T11:48:24;0.93;;;0.30;;
5646;SDS011;2845;48.626;9.362;2023-12-20T11:50:58;2.05;;;0.40;;
5646;SDS011;2845;48.626;9.362;2023-12-20T11:53:32;2.80;;;0.30;;
5646;SDS011;2845;48.626;9.362;2023-12-20T11:56:06;2.28;;;0.50;;
5646;SDS011;2845;48.626;9.362;2023-12-20T11:58:42;0.60;;;0.40;;
5646;SDS011;2845;48.626;9.362;2023-12-20T12:01:19;1.88;;;0.60;;
5646;SDS011;2845;48.626;9.362;2023-12-20T12:04:02;1.42;;;0.30;;
5646;SDS011;2845;48.626;9.362;2023-12-20T12:06:38;2.22;;;0.60;;
5646;SDS011;2845;48.626;9.362;2023-12-20T12:09:12;0.73;;;0.50;;
5646;SDS011;2845;48.626;9.362;2023-12-20T12:11:47;1.80;;;0.35;;
5646;SDS011;2845;48.626;9.362;2023-12-20T12:14:23;1.65;;;0.57;;
5646;SDS011;2845;48.626;9.362;2023-12-20T12:16:58;2.28;;;0.47;;
5646;SDS011;2845;48.626;9.362;2023-12-20T12:19:33;4.90;;;0.63;;
5646;SDS011;2845;48.626;9.362;2023-12-20T12:22:10;3.63;;;0.77;;
5646;SDS011;2845;48.626;9.362;2023-12-20T12:24:47;2.47;;;0.55;;
5646;SDS011;2845;48.626;9.362;2023-12-20T12:27:21;1.27;;;0.50;;
5646;SDS011;2845;48.626;9.362;2023-12-20T12:30:01;3.08;;;0.55;;
5646;SDS011;2845;48.626;9.362;2023-12-20T12:32:39;0.85;;;0.22;;
5646;SDS011;2845;48.626;9.362;2023-12-20T12:35:14;0.65;;;0.22;;
5646;SDS011;2845;48.626;9.362;2023-12-20T12:37:48;1.20;;;0.30;;
5646;SDS011;2845;48.626;9.362;2023-12-20T12:40:23;0.68;;;0.30;;
5646;SDS011;2845;48.626;9.362;2023-12-20T12:42:58;6.20;;;1.08;;
5646;SDS011;2845;48.626;9.362;2023-12-20T12:45:33;2.47;;;0.55;;
5646;SDS011;2845;48.626;9.362;2023-12-20T12:48:08;1.23;;;0.60;;
5646;SDS011;2845;48.626;9.362;2023-12-20T12:50:42;1.42;;;0.50;;
5646;SDS011;2845;48.626;9.362;2023-12-20T12:53:16;3.75;;;0.60;;
5646;SDS011;2845;48.626;9.362;2023-12-20T12:55:50;1.40;;;0.80;;
5646;SDS011;2845;48.626;9.362;2023-12-20T12:58:25;1.77;;;0.55;;
5646;SDS011;2845;48.626;9.362;2023-12-20T13:01:00;3.17;;;0.30;;
5646;SDS011;2845;48.626;9.362;2023-12-20T13:03:36;1.95;;;0.40;;
5646;SDS011;2845;48.626;9.362;2023-12-20T13:06:10;1.35;;;0.32;;
5646;SDS011;2845;48.626;9.362;2023-12-20T13:08:44;2.75;;;0.40;;
5646;SDS011;2845;48.626;9.362;2023-12-20T13:11:19;0.60;;;0.30;;
5646;SDS011;2845;48.626;9.362;2023-12-20T13:13:53;2.08;;;0.35;;
5646;SDS011;2845;48.626;9.362;2023-12-20T13:16:28;2.63;;;0.60;;
5646;SDS011;2845;48.626;9.362;2023-12-20T13:19:03;2.42;;;0.60;;
5646;SDS011;2845;48.626;9.362;2023-12-20T13:21:38;1.52;;;0.60;;
5646;SDS011;2845;48.626;9.362;2023-12-20T13:24:13;4.63;;;0.57;;
5646;SDS011;2845;48.626;9.362;2023-12-20T13:26:47;1.20;;;0.40;;
5646;SDS011;2845;48.626;9.362;2023-12-20T13:29:21;1.25;;;0.28;;
5646;SDS011;2845;48.626;9.362;2023-12-20T13:31:57;1.50;;;0.40;;
5646;SDS011;2845;48.626;9.362;2023-12-20T13:34:31;0.93;;;0.35;;
5646;SDS011;2845;48.626;9.362;2023-12-20T13:37:06;2.13;;;0.50;;
5646;SDS011;2845;48.626;9.362;2023-12-20T13:39:40;1.77;;;0.40;;
5646;SDS011;2845;48.626;9.362;2023-12-20T13:42:14;3.63;;;0.60;;
5646;SDS011;2845;48.626;9.362;2023-12-20T13:44:48;2.75;;;0.30;;
5646;SDS011;2845;48.626;9.362;2023-12-20T13:47:24;1.42;;;0.20;;
5646;SDS011;2845;48.626;9.362;2023-12-20T13:49:58;0.75;;;0.32;;
5646;SDS011;2845;48.626;9.362;2023-12-20T13:52:33;2.55;;;0.43;;
5646;SDS011;2845;48.626;9.362;2023-12-20T13:55:10;1.02;;;0.63;;
5646;SDS011;2845;48.626;9.362;2023-12-20T13:57:45;0.55;;;0.47;;
5646;SDS011;2845;48.626;9.362;2023-12-20T14:00:27;6.93;;;0.60;;
5646;SDS011;2845;48.626;9.362;2023-12-20T14:03:03;1.60;;;0.40;;
5646;SDS011;2845;48.626;9.362;2023-12-20T14:05:37;0.38;;;0.20;;
5646;SDS011;2845;48.626;9.362;2023-12-20T14:08:12;1.75;;;0.75;;
5646;SDS011;2845;48.626;9.362;2023-12-20T14:10:46;2.67;;;0.80;;
5646;SDS011;2845;48.626;9.362;2023-12-20T14:13:21;5.95;;;0.60;;
5646;SDS011;2845;48.626;9.362;2023-12-20T14:15:55;1.05;;;0.40;;
5646;SDS011;2845;48.626;9.362;2023-12-20T14:18:32;0.68;;;0.45;;
5646;SDS011;2845;48.626;9.362;2023-12-20T14:21:06;1.75;;;0.60;;
5646;SDS011;2845;48.626;9.362;2023-12-20T14:23:40;1.02;;;0.55;;
5646;SDS011;2845;48.626;9.362;2023-12-20T14:26:18;2.10;;;0.60;;
5646;SDS011;2845;48.626;9.362;2023-12-20T14:28:52;1.17;;;0.60;;
5646;SDS011;2845;48.626;9.362;2023-12-20T14:31:26;4.63;;;1.30;;
5646;SDS011;2845;48.626;9.362;2023-12-20T14:34:02;5.70;;;0.75;;
5646;SDS011;2845;48.626;9.362;2023-12-20T14:36:37;2.47;;;0.60;;
5646;SDS011;2845;48.626;9.362;2023-12-20T14:39:11;3.20;;;1.00;;
5646;SDS011;2845;48.626;9.362;2023-12-20T14:41:45;2.72;;;0.90;;
5646;SDS011;2845;48.626;9.362;2023-12-20T14:44:20;3.40;;;0.70;;
5646;SDS011;2845;48.626;9.362;2023-12-20T14:46:54;3.58;;;0.90;;
5646;SDS011;2845;48.626;9.362;2023-12-20T14:49:29;2.90;;;0.73;;
5646;SDS011;2845;48.626;9.362;2023-12-20T14:52:04;1.80;;;0.65;;
5646;SDS011;2845;48.626;9.362;2023-12-20T14:54:38;2.88;;;1.02;;
5646;SDS011;2845;48.626;9.362;2023-12-20T14:57:14;4.40;;;1.30;;
5646;SDS011;2845;48.626;9.362;2023-12-20T14:59:48;4.18;;;0.70;;
5646;SDS011;2845;48.626;9.362;2023-12-20T15:02:22;3.03;;;1.15;;
5646;SDS011;2845;48.626;9.362;2023-12-20T15:04:58;1.70;;;0.65;;
5646;SDS011;2845;48.626;9.362;2023-12-20T15:07:33;1.33;;;0.47;;
5646;SDS011;2845;48.626;9.362;2023-12-20T15:10:08;6.78;;;0.77;;
5646;SDS011;2845;48.626;9.362;2023-12-20T15:12:43;1.88;;;0.50;;
5646;SDS011;2845;48.626;9.362;2023-12-20T15:15:18;2.90;;;0.32;;
5646;SDS011;2845;48.626;9.362;2023-12-20T15:17:52;2.05;;;0.55;;
5646;SDS011;2845;48.626;9.362;2023-12-20T15:20:28;3.15;;;0.30;;
5646;SDS011;2845;48.626;9.362;2023-12-20T15:23:02;3.30;;;0.35;;
5646;SDS011;2845;48.626;9.362;2023-12-20T15:25:39;5.20;;;0.82;;
5646;SDS011;2845;48.626;9.362;2023-12-20T15:28:14;3.20;;;0.35;;
5646;SDS011;2845;48.626;9.362;2023-12-20T15:30:48;0.70;;;0.28;;
5646;SDS011;2845;48.626;9.362;2023-12-20T15:33:22;4.18;;;1.58;;
5646;SDS011;2845;48.626;9.362;2023-12-20T15:35:58;3.35;;;0.90;;
5646;SDS011;2845;48.626;9.362;2023-12-20T15:38:32;2.33;;;0.68;;
5646;SDS011;2845;48.626;9.362;2023-12-20T15:41:07;1.48;;;0.60;;
5646;SDS011;2845;48.626;9.362;2023-12-20T15:43:41;1.00;;;0.30;;
5646;SDS011;2845;48.626;9.362;2023-12-20T15:46:15;0.80;;;0.30;;
5646;SDS011;2845;48.626;9.362;2023-12-20T15:48:50;2.20;;;0.35;;
5646;SDS011;2845;48.626;9.362;2023-12-20T15:51:26;1.58;;;0.40;;
5646;SDS011;2845;48.626;9.362;2023-12-20T15:54:00;1.60;;;0.50;;
5646;SDS011;2845;48.626;9.362;2023-12-20T15:56:38;1.50;;;0.40;;
5646;SDS011;2845;48.626;9.362;2023-12-20T15:59:13;0.73;;;0.30;;
5646;SDS011;2845;48.626;9.362;2023-12-20T16:01:47;4.00;;;1.30;;
5646;SDS011;2845;48.626;9.362;2023-12-20T16:04:26;5.13;;;1.10;;
5646;SDS011;2845;48.626;9.362;2023-12-20T16:07:01;3.83;;;1.20;;
5646;SDS011;2845;48.626;9.362;2023-12-20T16:09:36;4.68;;;0.82;;